createdAt,value
2018-03-21T00:00:49.126Z,77.42
2018-03-21T00:01:49.143Z,77.42
2018-03-21T00:02:49.165Z,77.58
2018-03-21T00:03:49.174Z,77.67
2018-03-21T00:04:49.197Z,78.05
2018-03-21T00:05:49.215Z,78.05
2018-03-21T00:06:49.237Z,77.42
2018-03-21T00:07:49.256Z,77.61
2018-03-21T00:08:49.275Z,77.58
2018-03-21T00:09:49.293Z,77.58
2018-03-21T00:10:49.323Z,78.23
2018-03-21T00:11:49.332Z,78.14
2018-03-21T00:12:49.364Z,78.08
2018-03-21T00:13:49.373Z,78.18
2018-03-21T00:14:49.396Z,77.99
2018-03-21T00:15:49.414Z,78.27
2018-03-21T00:16:49.429Z,78.05
2018-03-21T00:17:49.450Z,77.61
2018-03-21T00:18:49.471Z,77.39
2018-03-21T00:19:49.497Z,77.58
2018-03-21T00:20:49.517Z,77.39
2018-03-21T00:21:49.529Z,77.48
2018-03-21T00:22:49.556Z,77.29
2018-03-21T00:23:49.605Z,77.48
2018-03-21T00:24:49.592Z,77.58
2018-03-21T00:25:49.627Z,78.14
2018-03-21T00:26:49.634Z,78.14
2018-03-21T00:27:49.651Z,77.95
2018-03-21T00:28:49.674Z,78.14
2018-03-21T00:29:49.690Z,77.95
2018-03-21T00:30:49.712Z,77.86
2018-03-21T00:31:49.733Z,78.52
2018-03-21T00:32:49.746Z,78.52
2018-03-21T00:33:49.775Z,78.52
2018-03-21T00:34:49.787Z,78.33
2018-03-21T00:35:49.819Z,78.33
2018-03-21T00:36:49.828Z,78.23
2018-03-21T00:37:49.846Z,78.80
2018-03-21T00:38:49.871Z,79.18
2018-03-21T00:39:49.887Z,79.18
2018-03-21T00:40:49.911Z,79.66
2018-03-21T00:41:49.927Z,79.56
2018-03-21T00:42:50.002Z,79.47
2018-03-21T00:43:49.965Z,80.13
2018-03-21T00:44:49.981Z,79.09
2018-03-21T00:45:50.002Z,78.99
2018-03-21T00:46:50.036Z,79.09
2018-03-21T00:47:50.040Z,79.47
2018-03-21T00:48:50.089Z,79.75
2018-03-21T00:49:50.089Z,80.04
2018-03-21T00:50:50.109Z,79.85
2018-03-21T00:51:50.133Z,79.75
2018-03-21T00:52:50.140Z,79.37
2018-03-21T00:53:50.159Z,79.09
2018-03-21T00:54:50.183Z,79.18
2018-03-21T00:55:50.204Z,79.28
2018-03-21T00:56:50.220Z,79.37
2018-03-21T00:57:50.233Z,79.47
2018-03-21T00:58:50.257Z,79.37
2018-03-21T00:59:50.273Z,79.28
2018-03-21T01:00:50.309Z,79.37
2018-03-21T01:01:50.315Z,79.09
2018-03-21T01:02:50.333Z,79.47
2018-03-21T01:03:50.375Z,79.28
2018-03-21T01:04:50.373Z,78.99
2018-03-21T01:05:50.395Z,79.75
2018-03-21T01:06:50.420Z,79.56
2018-03-21T01:07:50.434Z,79.37
2018-03-21T01:08:50.453Z,79.28
2018-03-21T01:09:50.467Z,79.09
2018-03-21T01:10:50.488Z,79.47
2018-03-21T01:11:50.539Z,78.99
2018-03-21T01:12:50.531Z,79.28
2018-03-21T01:13:50.551Z,79.09
2018-03-21T01:14:50.576Z,79.18
2018-03-21T01:15:50.587Z,79.18
2018-03-21T01:16:50.608Z,79.28
2018-03-21T01:17:50.628Z,79.37
2018-03-21T01:18:50.645Z,79.28
2018-03-21T01:19:50.666Z,79.37
2018-03-21T01:20:50.696Z,79.18
2018-03-21T01:21:50.704Z,79.18
2018-03-21T01:22:50.732Z,80.04
2018-03-21T01:23:50.742Z,79.28
2018-03-21T01:24:50.767Z,79.85
2018-03-21T01:25:50.801Z,79.94
2018-03-21T01:26:51.653Z,79.66
2018-03-21T01:27:50.819Z,79.85
2018-03-21T01:28:50.847Z,79.47
2018-03-21T01:29:50.859Z,80.32
2018-03-21T01:30:50.893Z,80.04
2018-03-21T01:31:50.908Z,80.22
2018-03-21T01:32:50.917Z,79.94
2018-03-21T01:33:50.933Z,80.32
2018-03-21T01:34:50.966Z,79.75
2018-03-21T01:35:50.985Z,79.94
2018-03-21T01:36:50.997Z,80.69
2018-03-21T01:37:51.015Z,80.13
2018-03-21T01:38:51.039Z,79.85
2018-03-21T01:39:51.058Z,79.94
2018-03-21T01:40:51.074Z,80.04
2018-03-21T01:41:51.654Z,79.56
2018-03-21T01:42:51.111Z,80.22
2018-03-21T01:43:51.135Z,80.69
2018-03-21T01:44:51.156Z,80.69
2018-03-21T01:45:51.173Z,80.51
2018-03-21T01:46:51.194Z,80.04
2018-03-21T01:47:51.210Z,80.41
2018-03-21T01:48:51.232Z,80.04
2018-03-21T01:49:51.283Z,80.04
2018-03-21T01:50:51.271Z,80.22
2018-03-21T01:51:51.288Z,79.75
2018-03-21T01:52:51.415Z,79.85
2018-03-21T01:53:51.335Z,79.66
2018-03-21T01:54:51.347Z,80.22
2018-03-21T01:55:51.364Z,80.04
2018-03-21T01:56:51.392Z,80.04
2018-03-21T01:57:51.400Z,79.94
2018-03-21T01:58:51.428Z,79.94
2018-03-21T01:59:51.443Z,79.75
2018-03-21T02:00:51.465Z,80.13
2018-03-21T02:01:51.488Z,79.66
2018-03-21T02:02:51.500Z,80.60
2018-03-21T02:03:51.519Z,80.69
2018-03-21T02:04:51.548Z,80.13
2018-03-21T02:05:52.147Z,80.04
2018-03-21T02:06:51.578Z,79.66
2018-03-21T02:07:51.601Z,80.41
2018-03-21T02:08:51.612Z,80.69
2018-03-21T02:09:51.639Z,80.04
2018-03-21T02:10:51.654Z,80.13
2018-03-21T02:11:51.677Z,80.51
2018-03-21T02:12:51.690Z,80.51
2018-03-21T02:13:51.711Z,80.04
2018-03-21T02:14:51.730Z,80.51
2018-03-21T02:15:51.751Z,80.60
2018-03-21T02:16:51.767Z,80.41
2018-03-21T02:17:51.788Z,81.07
2018-03-21T02:18:51.805Z,80.79
2018-03-21T02:19:51.829Z,80.69
2018-03-21T02:20:51.844Z,80.98
2018-03-21T02:21:51.880Z,81.26
2018-03-21T02:22:51.885Z,80.98
2018-03-21T02:23:51.912Z,80.04
2018-03-21T02:24:51.924Z,81.07
2018-03-21T02:25:51.947Z,81.36
2018-03-21T02:26:51.972Z,81.36
2018-03-21T02:27:51.981Z,80.88
2018-03-21T02:28:51.999Z,80.88
2018-03-21T02:29:52.022Z,81.07
2018-03-21T02:30:52.044Z,80.98
2018-03-21T02:31:52.057Z,80.32
2018-03-21T02:32:52.088Z,80.60
2018-03-21T02:33:52.095Z,80.60
2018-03-21T02:34:52.122Z,80.41
2018-03-21T02:35:52.132Z,80.51
2018-03-21T02:36:52.160Z,80.51
2018-03-21T02:37:52.175Z,80.41
2018-03-21T02:38:52.203Z,81.17
2018-03-21T02:39:52.214Z,80.22
2018-03-21T02:40:52.235Z,80.22
2018-03-21T02:41:52.252Z,80.32
2018-03-21T02:42:52.270Z,79.75
2018-03-21T02:43:52.295Z,79.66
2018-03-21T02:44:52.312Z,80.13
2018-03-21T02:45:52.330Z,79.75
2018-03-21T02:46:52.352Z,79.66
2018-03-21T02:47:52.367Z,80.51
2018-03-21T02:48:52.394Z,80.51
2018-03-21T02:49:52.408Z,80.51
2018-03-21T02:50:52.422Z,80.04
2018-03-21T02:51:52.442Z,79.94
2018-03-21T02:52:52.471Z,79.66
2018-03-21T02:53:52.484Z,80.04
2018-03-21T02:54:52.497Z,80.51
2018-03-21T02:55:52.524Z,80.13
2018-03-21T02:56:52.540Z,80.98
2018-03-21T02:57:52.564Z,80.60
2018-03-21T02:58:52.573Z,81.17
2018-03-21T02:59:52.596Z,81.17
2018-03-21T03:00:52.614Z,80.79
2018-03-21T03:01:52.643Z,81.45
2018-03-21T03:02:52.671Z,80.51
2018-03-21T03:03:52.674Z,81.17
2018-03-21T03:04:52.698Z,81.17
2018-03-21T03:05:52.709Z,80.88
2018-03-21T03:06:52.728Z,80.79
2018-03-21T03:07:52.748Z,80.88
2018-03-21T03:08:52.768Z,80.79
2018-03-21T03:09:52.785Z,80.41
2018-03-21T03:10:52.886Z,80.88
2018-03-21T03:11:52.829Z,80.32
2018-03-21T03:12:52.855Z,81.07
2018-03-21T03:13:52.869Z,80.41
2018-03-21T03:14:52.902Z,80.51
2018-03-21T03:15:52.928Z,80.22
2018-03-21T03:16:52.922Z,80.41
2018-03-21T03:17:52.939Z,80.60
2018-03-21T03:18:52.974Z,81.07
2018-03-21T03:19:52.981Z,80.51
2018-03-21T03:20:53.005Z,80.13
2018-03-21T03:21:53.017Z,81.26
2018-03-21T03:22:53.031Z,80.41
2018-03-21T03:23:53.058Z,80.88
2018-03-21T03:24:53.073Z,80.79
2018-03-21T03:25:53.094Z,81.17
2018-03-21T03:26:53.122Z,80.51
2018-03-21T03:27:53.133Z,80.98
2018-03-21T03:28:53.149Z,80.79
2018-03-21T03:29:53.168Z,80.69
2018-03-21T03:30:53.190Z,80.79
2018-03-21T03:31:53.205Z,80.79
2018-03-21T03:32:53.228Z,80.69
2018-03-21T03:33:53.243Z,80.13
2018-03-21T03:34:54.146Z,80.69
2018-03-21T03:35:53.291Z,80.88
2018-03-21T03:36:53.313Z,80.79
2018-03-21T03:37:53.321Z,81.07
2018-03-21T03:38:53.355Z,81.17
2018-03-21T03:39:53.361Z,80.51
2018-03-21T03:40:53.383Z,80.32
2018-03-21T03:41:53.399Z,80.69
2018-03-21T03:42:53.418Z,81.07
2018-03-21T03:43:53.435Z,80.41
2018-03-21T03:44:53.472Z,80.51
2018-03-21T03:45:53.480Z,80.32
2018-03-21T03:46:53.494Z,80.75
2018-03-21T03:47:54.146Z,80.69
2018-03-21T03:48:53.537Z,81.13
2018-03-21T03:49:54.147Z,81.36
2018-03-21T03:50:53.574Z,81.26
2018-03-21T03:51:53.588Z,81.45
2018-03-21T03:52:53.618Z,80.60
2018-03-21T03:53:53.626Z,80.69
2018-03-21T03:54:53.647Z,80.60
2018-03-21T03:55:53.679Z,80.60
2018-03-21T03:56:53.684Z,81.07
2018-03-21T03:57:53.709Z,81.26
2018-03-21T03:58:53.720Z,80.69
2018-03-21T03:59:53.739Z,80.37
2018-03-21T04:00:53.778Z,81.55
2018-03-21T04:01:53.784Z,80.88
2018-03-21T04:02:53.797Z,80.60
2018-03-21T04:03:53.818Z,80.84
2018-03-21T04:04:53.837Z,80.84
2018-03-21T04:05:53.855Z,81.26
2018-03-21T04:06:53.877Z,81.13
2018-03-21T04:07:53.893Z,81.26
2018-03-21T04:08:53.917Z,81.26
2018-03-21T04:09:53.939Z,80.94
2018-03-21T04:10:53.949Z,80.98
2018-03-21T04:11:53.975Z,81.17
2018-03-21T04:12:53.987Z,80.98
2018-03-21T04:13:54.014Z,81.22
2018-03-21T04:14:54.021Z,81.70
2018-03-21T04:15:54.090Z,82.26
2018-03-21T04:16:54.066Z,82.26
2018-03-21T04:17:54.076Z,82.26
2018-03-21T04:18:54.105Z,82.26
2018-03-21T04:19:54.123Z,83.11
2018-03-21T04:20:54.141Z,82.92
2018-03-21T04:21:54.163Z,83.21
2018-03-21T04:22:54.187Z,83.30
2018-03-21T04:23:54.201Z,83.02
2018-03-21T04:24:54.215Z,82.92
2018-03-21T04:25:54.235Z,83.02
2018-03-21T04:26:54.249Z,83.30
2018-03-21T04:27:54.280Z,83.49
2018-03-21T04:28:54.289Z,83.49
2018-03-21T04:29:54.314Z,83.97
2018-03-21T04:30:54.329Z,83.97
2018-03-21T04:31:54.345Z,83.97
2018-03-21T04:32:54.409Z,83.78
2018-03-21T04:33:54.383Z,84.06
2018-03-21T04:34:54.404Z,83.97
2018-03-21T04:35:54.422Z,84.25
2018-03-21T04:36:54.442Z,84.34
2018-03-21T04:37:54.462Z,84.53
2018-03-21T04:38:54.484Z,84.81
2018-03-21T04:39:54.498Z,84.53
2018-03-21T04:40:54.519Z,84.72
2018-03-21T04:41:54.532Z,84.72
2018-03-21T04:42:54.554Z,84.72
2018-03-21T04:43:54.573Z,84.63
2018-03-21T04:44:54.602Z,84.81
2018-03-21T04:45:54.610Z,85.24
2018-03-21T04:46:54.629Z,85.10
2018-03-21T04:47:54.641Z,85.24
2018-03-21T04:48:54.669Z,85.34
2018-03-21T04:49:54.683Z,85.05
2018-03-21T04:50:54.703Z,85.00
2018-03-21T04:51:54.731Z,84.86
2018-03-21T04:52:54.875Z,85.34
2018-03-21T04:53:54.756Z,85.19
2018-03-21T04:54:54.782Z,84.91
2018-03-21T04:55:54.801Z,84.63
2018-03-21T04:56:54.814Z,84.53
2018-03-21T04:57:54.853Z,84.72
2018-03-21T04:58:54.847Z,84.53
2018-03-21T04:59:54.873Z,84.06
2018-03-21T05:00:54.889Z,84.06
2018-03-21T05:01:54.916Z,83.97
2018-03-21T05:02:54.936Z,84.34
2018-03-21T05:03:54.955Z,83.87
2018-03-21T05:04:54.962Z,83.87
2018-03-21T05:05:55.044Z,83.97
2018-03-21T05:06:55.003Z,83.40
2018-03-21T05:07:55.049Z,83.11
2018-03-21T05:08:55.044Z,82.92
2018-03-21T05:09:55.052Z,82.92
2018-03-21T05:10:55.072Z,82.54
2018-03-21T05:11:55.092Z,82.83
2018-03-21T05:12:55.111Z,83.30
2018-03-21T05:13:55.125Z,83.49
2018-03-21T05:14:55.147Z,84.16
2018-03-21T05:15:55.194Z,84.25
2018-03-21T05:16:55.181Z,84.06
2018-03-21T05:17:55.201Z,83.49
2018-03-21T05:18:55.236Z,83.97
2018-03-21T05:19:55.240Z,83.78
2018-03-21T05:20:55.322Z,84.25
2018-03-21T05:21:55.279Z,84.06
2018-03-21T05:22:55.300Z,83.59
2018-03-21T05:23:55.315Z,83.49
2018-03-21T05:24:55.328Z,83.11
2018-03-21T05:25:55.348Z,83.11
2018-03-21T05:26:55.365Z,82.73
2018-03-21T05:27:55.384Z,83.11
2018-03-21T05:28:55.400Z,82.45
2018-03-21T05:29:55.421Z,82.92
2018-03-21T05:30:55.465Z,82.92
2018-03-21T05:31:55.498Z,82.92
2018-03-21T05:32:55.483Z,82.35
2018-03-21T05:33:55.502Z,82.83
2018-03-21T05:34:55.512Z,83.11
2018-03-21T05:35:55.540Z,83.21
2018-03-21T05:36:55.550Z,83.40
2018-03-21T05:37:55.568Z,83.49
2018-03-21T05:38:55.582Z,83.59
2018-03-21T05:39:55.608Z,83.49
2018-03-21T05:40:55.628Z,83.59
2018-03-21T05:41:55.642Z,83.40
2018-03-21T05:42:55.667Z,83.40
2018-03-21T05:43:55.676Z,82.54
2018-03-21T05:44:55.706Z,82.92
2018-03-21T05:45:55.717Z,82.92
2018-03-21T05:46:55.737Z,82.92
2018-03-21T05:47:55.763Z,83.30
2018-03-21T05:48:55.776Z,82.54
2018-03-21T05:49:55.806Z,82.26
2018-03-21T05:50:55.809Z,82.07
2018-03-21T05:51:55.825Z,82.26
2018-03-21T05:52:55.857Z,82.07
2018-03-21T05:53:55.870Z,82.26
2018-03-21T05:54:55.880Z,82.35
2018-03-21T05:55:55.895Z,82.45
2018-03-21T05:56:55.922Z,82.54
2018-03-21T05:57:55.932Z,82.07
2018-03-21T05:58:55.960Z,81.98
2018-03-21T05:59:55.975Z,82.07
2018-03-21T06:00:55.992Z,82.35
2018-03-21T06:01:56.010Z,82.35
2018-03-21T06:02:56.034Z,82.17
2018-03-21T06:03:56.049Z,82.17
2018-03-21T06:04:56.064Z,82.17
2018-03-21T06:05:56.083Z,81.98
2018-03-21T06:06:56.098Z,81.41
2018-03-21T06:07:56.127Z,82.07
2018-03-21T06:08:56.136Z,80.84
2018-03-21T06:09:56.155Z,81.03
2018-03-21T06:10:56.176Z,81.03
2018-03-21T06:11:56.192Z,81.22
2018-03-21T06:12:56.209Z,81.13
2018-03-21T06:13:56.228Z,81.22
2018-03-21T06:14:56.252Z,81.22
2018-03-21T06:15:56.274Z,81.03
2018-03-21T06:16:56.292Z,81.32
2018-03-21T06:17:56.301Z,81.32
2018-03-21T06:18:56.333Z,81.70
2018-03-21T06:19:56.346Z,81.41
2018-03-21T06:20:56.377Z,81.93
2018-03-21T06:21:56.376Z,80.84
2018-03-21T06:22:56.397Z,81.45
2018-03-21T06:23:56.414Z,81.36
2018-03-21T06:24:56.441Z,81.64
2018-03-21T06:25:56.462Z,81.26
2018-03-21T06:26:56.469Z,80.88
2018-03-21T06:27:56.501Z,81.03
2018-03-21T06:28:56.525Z,80.98
2018-03-21T06:29:56.537Z,81.64
2018-03-21T06:30:56.543Z,80.79
2018-03-21T06:31:56.563Z,80.98
2018-03-21T06:32:56.585Z,81.17
2018-03-21T06:33:56.607Z,81.07
2018-03-21T06:34:56.619Z,81.36
2018-03-21T06:35:56.644Z,81.17
2018-03-21T06:36:56.668Z,81.17
2018-03-21T06:37:56.740Z,80.98
2018-03-21T06:38:56.702Z,81.17
2018-03-21T06:39:56.714Z,81.17
2018-03-21T06:40:56.737Z,80.79
2018-03-21T06:41:56.753Z,81.07
2018-03-21T06:42:56.772Z,81.36
2018-03-21T06:43:56.793Z,81.36
2018-03-21T06:44:56.813Z,81.26
2018-03-21T06:45:56.830Z,80.79
2018-03-21T06:46:56.851Z,81.17
2018-03-21T06:47:56.869Z,81.17
2018-03-21T06:48:56.882Z,81.17
2018-03-21T06:49:56.928Z,80.88
2018-03-21T06:50:56.922Z,81.17
2018-03-21T06:51:56.959Z,80.69
2018-03-21T06:52:56.978Z,80.51
2018-03-21T06:53:57.011Z,80.60
2018-03-21T06:54:57.011Z,80.60
2018-03-21T06:55:57.029Z,81.07
2018-03-21T06:56:57.038Z,81.36
2018-03-21T06:57:57.055Z,80.32
2018-03-21T06:58:57.075Z,80.69
2018-03-21T06:59:57.089Z,80.88
2018-03-21T07:00:57.134Z,80.79
2018-03-21T07:01:57.131Z,80.13
2018-03-21T07:02:57.207Z,80.88
2018-03-21T07:03:57.168Z,81.07
2018-03-21T07:04:57.238Z,81.17
2018-03-21T07:05:57.214Z,80.13
2018-03-21T07:06:57.236Z,80.13
2018-03-21T07:07:57.245Z,79.85
2018-03-21T07:08:57.269Z,79.79
2018-03-21T07:09:57.295Z,79.98
2018-03-21T07:10:57.300Z,79.98
2018-03-21T07:11:57.331Z,80.17
2018-03-21T07:12:57.346Z,79.85
2018-03-21T07:13:57.368Z,79.69
2018-03-21T07:14:57.379Z,79.79
2018-03-21T07:15:57.484Z,79.69
2018-03-21T07:16:57.419Z,79.88
2018-03-21T07:17:57.445Z,79.98
2018-03-21T07:18:57.453Z,79.88
2018-03-21T07:19:57.477Z,79.41
2018-03-21T07:20:57.495Z,79.22
2018-03-21T07:21:57.523Z,79.03
2018-03-21T07:22:57.531Z,79.03
2018-03-21T07:23:57.564Z,79.13
2018-03-21T07:24:57.566Z,79.32
2018-03-21T07:25:57.587Z,79.22
2018-03-21T07:26:57.622Z,79.22
2018-03-21T07:27:57.628Z,78.75
2018-03-21T07:28:57.669Z,78.65
2018-03-21T07:29:57.669Z,77.99
2018-03-21T07:30:57.696Z,77.99
2018-03-21T07:31:57.707Z,77.89
2018-03-21T07:32:57.722Z,77.99
2018-03-21T07:33:57.742Z,78.08
2018-03-21T07:34:57.770Z,78.18
2018-03-21T07:35:57.777Z,77.89
2018-03-21T07:36:57.799Z,77.51
2018-03-21T07:37:57.820Z,77.61
2018-03-21T07:38:57.843Z,77.61
2018-03-21T07:39:57.875Z,77.33
2018-03-21T07:40:57.886Z,77.04
2018-03-21T07:41:57.897Z,77.61
2018-03-21T07:42:57.922Z,77.42
2018-03-21T07:43:57.948Z,77.04
2018-03-21T07:44:58.005Z,76.48
2018-03-21T07:45:57.978Z,76.67
2018-03-21T07:46:57.990Z,76.67
2018-03-21T07:47:58.024Z,76.67
2018-03-21T07:48:58.032Z,75.91
2018-03-21T07:49:58.050Z,76.19
2018-03-21T07:50:58.070Z,75.85
2018-03-21T07:51:58.093Z,75.81
2018-03-21T07:52:58.106Z,75.66
2018-03-21T07:53:58.132Z,75.47
2018-03-21T07:54:58.148Z,75.28
2018-03-21T07:55:58.174Z,75.47
2018-03-21T07:56:58.186Z,75.47
2018-03-21T07:57:58.205Z,75.19
2018-03-21T07:58:58.221Z,75.28
2018-03-21T07:59:58.247Z,74.71
2018-03-21T08:00:58.269Z,74.81
2018-03-21T08:01:58.282Z,75.00
2018-03-21T08:02:58.305Z,73.96
2018-03-21T08:03:58.337Z,74.43
2018-03-21T08:04:58.350Z,74.24
2018-03-21T08:05:58.367Z,75.09
2018-03-21T08:06:58.381Z,75.19
2018-03-21T08:07:58.398Z,75.19
2018-03-21T08:08:58.426Z,75.00
2018-03-21T08:09:58.440Z,75.00
2018-03-21T08:10:58.462Z,74.15
2018-03-21T08:11:58.491Z,75.00
2018-03-21T08:12:58.508Z,75.19
2018-03-21T08:13:58.528Z,74.90
2018-03-21T08:14:58.538Z,74.43
2018-03-21T08:15:58.555Z,74.43
2018-03-21T08:16:58.586Z,74.52
2018-03-21T08:17:58.598Z,75.28
2018-03-21T08:18:58.622Z,74.05
2018-03-21T08:19:58.634Z,74.52
2018-03-21T08:20:58.653Z,74.24
2018-03-21T08:21:58.674Z,73.96
2018-03-21T08:22:58.690Z,73.96
2018-03-21T08:23:58.724Z,74.15
2018-03-21T08:24:58.739Z,74.15
2018-03-21T08:25:58.763Z,74.24
2018-03-21T08:26:58.777Z,73.24
2018-03-21T08:27:58.819Z,73.11
2018-03-21T08:28:58.844Z,73.14
2018-03-21T08:29:58.845Z,72.96
2018-03-21T08:30:58.860Z,72.77
2018-03-21T08:31:59.010Z,72.29
2018-03-21T08:32:58.898Z,71.91
2018-03-21T08:33:58.925Z,71.81
2018-03-21T08:34:58.955Z,70.68
2018-03-21T08:35:58.970Z,70.87
2018-03-21T08:36:58.989Z,70.87
2018-03-21T08:37:59.000Z,70.11
2018-03-21T08:38:59.018Z,69.54
2018-03-21T08:39:59.033Z,69.45
2018-03-21T08:40:59.061Z,69.17
2018-03-21T08:41:59.074Z,69.01
2018-03-21T08:42:59.090Z,68.82
2018-03-21T08:43:59.112Z,67.87
2018-03-21T08:44:59.633Z,68.44
2018-03-21T08:45:59.148Z,67.87
2018-03-21T08:46:59.181Z,67.40
2018-03-21T08:47:59.197Z,66.64
2018-03-21T08:48:59.220Z,65.78
2018-03-21T08:49:59.253Z,65.31
2018-03-21T08:50:59.285Z,65.34
2018-03-21T08:51:59.274Z,64.49
2018-03-21T08:52:59.298Z,64.40
2018-03-21T08:53:59.310Z,62.62
2018-03-21T08:54:59.349Z,61.42
2018-03-21T08:55:59.354Z,59.81
2018-03-21T08:56:59.384Z,58.39
2018-03-21T08:57:59.418Z,58.58
2018-03-21T08:58:59.422Z,57.53
2018-03-21T08:59:59.448Z,56.51
2018-03-21T09:00:59.471Z,56.01
2018-03-21T09:01:59.482Z,55.57
2018-03-21T09:02:59.503Z,55.28
2018-03-21T09:03:59.537Z,54.80
2018-03-21T09:04:59.561Z,53.91
2018-03-21T09:05:59.590Z,52.39
2018-03-21T09:06:59.586Z,51.25
2018-03-21T09:07:59.614Z,49.85
2018-03-21T09:08:59.647Z,49.11
2018-03-21T09:09:59.658Z,47.52
2018-03-21T09:10:59.697Z,45.66
2018-03-21T09:11:59.699Z,46.04
2018-03-21T09:12:59.752Z,45.75
2018-03-21T09:13:59.768Z,45.80
2018-03-21T09:14:59.768Z,44.06
2018-03-21T09:15:59.796Z,41.43
2018-03-21T09:16:59.829Z,39.81
2018-03-21T09:17:59.845Z,37.74
2018-03-21T09:18:59.864Z,36.88
2018-03-21T09:19:59.891Z,35.93
2018-03-21T09:20:59.919Z,35.49
2018-03-21T09:21:59.934Z,36.68
2018-03-21T09:22:59.951Z,35.70
2018-03-21T09:23:59.993Z,36.31
2018-03-21T09:25:00.002Z,35.75
2018-03-21T09:26:00.034Z,35.18
2018-03-21T09:27:00.044Z,33.54
2018-03-21T09:28:00.074Z,34.14
2018-03-21T09:29:00.124Z,35.17
2018-03-21T09:30:00.132Z,37.78
2018-03-21T09:31:00.145Z,39.31
2018-03-21T09:32:00.214Z,40.43
2018-03-21T09:33:00.212Z,41.66
2018-03-21T09:34:00.219Z,41.85
2018-03-21T09:35:00.246Z,42.80
2018-03-21T09:36:00.279Z,42.83
2018-03-21T09:37:00.301Z,41.59
2018-03-21T09:38:00.322Z,42.05
2018-03-21T09:39:00.357Z,38.95
2018-03-21T09:40:00.372Z,39.97
2018-03-21T09:41:00.410Z,40.45
2018-03-21T09:42:00.424Z,39.90
2018-03-21T09:43:00.468Z,39.14
2018-03-21T09:44:00.474Z,38.95
2018-03-21T09:45:00.530Z,39.15
2018-03-21T09:46:00.528Z,38.09
2018-03-21T09:47:00.558Z,37.84
2018-03-21T09:48:00.590Z,37.92
2018-03-21T09:49:00.607Z,36.81
2018-03-21T09:50:00.637Z,35.82
2018-03-21T09:51:00.663Z,36.30
2018-03-21T09:52:00.700Z,35.93
2018-03-21T09:53:00.716Z,35.84
2018-03-21T09:54:00.743Z,35.82
2018-03-21T09:55:00.769Z,36.20
2018-03-21T09:56:00.796Z,36.47
2018-03-21T09:57:00.832Z,37.25
2018-03-21T09:58:00.863Z,36.83
2018-03-21T09:59:00.881Z,35.45
2018-03-21T10:00:00.916Z,32.78
2018-03-21T10:01:00.936Z,32.32
2018-03-21T10:02:00.971Z,34.20
2018-03-21T10:03:00.995Z,35.38
2018-03-21T10:04:01.017Z,34.61
2018-03-21T10:05:01.068Z,35.17
2018-03-21T10:06:01.125Z,36.58
2018-03-21T10:07:01.110Z,36.12
2018-03-21T10:08:01.135Z,35.86
2018-03-21T10:09:01.169Z,34.81
2018-03-21T10:10:01.193Z,34.31
2018-03-21T10:11:01.217Z,35.00
2018-03-21T10:12:01.247Z,34.09
2018-03-21T10:13:01.285Z,32.12
2018-03-21T10:14:01.306Z,30.52
2018-03-21T10:15:01.353Z,27.75
2018-03-21T10:16:01.363Z,27.71
2018-03-21T10:17:01.418Z,30.07
2018-03-21T10:18:01.435Z,31.77
2018-03-21T10:19:01.457Z,32.90
2018-03-21T10:20:01.483Z,33.64
2018-03-21T10:21:01.514Z,34.22
2018-03-21T10:22:01.548Z,35.35
2018-03-21T10:23:01.572Z,35.44
2018-03-21T10:24:01.602Z,35.63
2018-03-21T10:25:01.633Z,35.63
2018-03-21T10:26:01.773Z,35.72
2018-03-21T10:27:01.693Z,35.72
2018-03-21T10:28:01.736Z,35.91
2018-03-21T10:29:01.760Z,35.91
2018-03-21T10:30:01.800Z,35.28
2018-03-21T10:31:01.825Z,35.03
2018-03-21T10:32:01.862Z,32.44
2018-03-21T10:33:01.884Z,32.65
2018-03-21T10:34:01.918Z,31.21
2018-03-21T10:35:01.937Z,31.31
2018-03-21T10:36:01.982Z,32.14
2018-03-21T10:37:02.015Z,33.20
2018-03-21T10:38:02.032Z,33.01
2018-03-21T10:39:02.063Z,33.97
2018-03-21T10:40:02.108Z,33.09
2018-03-21T10:41:02.133Z,32.98
2018-03-21T10:42:02.157Z,34.22
2018-03-21T10:43:02.189Z,34.12
2018-03-21T10:44:02.225Z,33.93
2018-03-21T10:45:02.257Z,34.23
2018-03-21T10:46:02.297Z,33.00
2018-03-21T10:47:02.322Z,31.87
2018-03-21T10:48:02.356Z,31.53
2018-03-21T10:49:02.384Z,29.08
2018-03-21T10:50:02.419Z,27.37
2018-03-21T10:51:02.445Z,27.45
2018-03-21T10:52:02.485Z,28.19
2018-03-21T10:53:02.521Z,29.21
2018-03-21T10:54:02.635Z,30.43
2018-03-21T10:55:02.613Z,30.85
2018-03-21T10:56:02.626Z,30.07
2018-03-21T10:57:02.656Z,30.29
2018-03-21T10:58:02.678Z,29.20
2018-03-21T10:59:02.727Z,26.63
2018-03-21T11:00:02.763Z,26.14
2018-03-21T11:01:02.792Z,25.59
2018-03-21T11:02:02.861Z,25.05
2018-03-21T11:03:02.865Z,22.54
2018-03-21T11:04:02.891Z,23.55
2018-03-21T11:05:02.918Z,26.29
2018-03-21T11:06:02.963Z,27.55
2018-03-21T11:07:02.991Z,27.82
2018-03-21T11:08:03.035Z,28.39
2018-03-21T11:09:03.064Z,27.56
2018-03-21T11:10:03.103Z,26.45
2018-03-21T11:11:03.136Z,24.43
2018-03-21T11:12:03.168Z,24.13
2018-03-21T11:13:04.179Z,25.56
2018-03-21T11:14:03.231Z,25.29
2018-03-21T11:15:03.304Z,24.93
2018-03-21T11:16:03.310Z,24.87
2018-03-21T11:17:03.352Z,26.87
2018-03-21T11:18:03.373Z,27.26
2018-03-21T11:19:03.417Z,28.00
2018-03-21T11:20:03.446Z,28.39
2018-03-21T11:21:03.487Z,28.79
2018-03-21T11:22:03.592Z,27.44
2018-03-21T11:23:03.550Z,26.25
2018-03-21T11:24:03.586Z,25.54
2018-03-21T11:25:03.621Z,22.41
2018-03-21T11:26:03.654Z,20.97
2018-03-21T11:27:03.706Z,21.09
2018-03-21T11:28:03.736Z,23.38
2018-03-21T11:29:03.765Z,24.62
2018-03-21T11:30:03.797Z,25.67
2018-03-21T11:31:03.865Z,25.79
2018-03-21T11:32:03.887Z,24.40
2018-03-21T11:33:03.919Z,22.22
2018-03-21T11:34:03.954Z,20.70
2018-03-21T11:35:03.974Z,19.64
2018-03-21T11:36:04.011Z,19.90
2018-03-21T11:37:04.052Z,21.75
2018-03-21T11:38:04.080Z,23.38
2018-03-21T11:39:04.138Z,24.69
2018-03-21T11:40:04.153Z,27.04
2018-03-21T11:41:04.193Z,28.75
2018-03-21T11:42:04.225Z,29.05
2018-03-21T11:43:04.257Z,29.61
2018-03-21T11:44:04.292Z,30.46
2018-03-21T11:45:04.391Z,30.67
2018-03-21T11:46:04.360Z,31.01
2018-03-21T11:47:04.395Z,32.06
2018-03-21T11:48:04.431Z,32.49
2018-03-21T11:49:04.462Z,30.44
2018-03-21T11:50:04.503Z,27.52
2018-03-21T11:51:04.531Z,25.09
2018-03-21T11:52:04.567Z,25.92
2018-03-21T11:53:04.603Z,27.47
2018-03-21T11:54:04.639Z,27.47
2018-03-21T11:55:04.684Z,27.47
2018-03-21T11:56:04.714Z,26.62
2018-03-21T11:57:04.732Z,26.30
2018-03-21T11:58:04.770Z,26.63
2018-03-21T11:59:04.806Z,25.04
2018-03-21T12:00:04.852Z,23.38
2018-03-21T12:01:04.872Z,24.50
2018-03-21T12:02:04.908Z,26.60
2018-03-21T12:03:04.945Z,26.97
2018-03-21T12:04:04.978Z,27.07
2018-03-21T12:05:05.005Z,27.25
2018-03-21T12:06:05.037Z,27.44
2018-03-21T12:07:05.080Z,27.39
2018-03-21T12:08:05.107Z,25.61
2018-03-21T12:09:05.140Z,23.24
2018-03-21T12:10:05.186Z,21.48
2018-03-21T12:11:05.202Z,23.57
2018-03-21T12:12:05.242Z,23.28
2018-03-21T12:13:05.277Z,22.94
2018-03-21T12:14:05.313Z,22.06
2018-03-21T12:15:05.341Z,23.62
2018-03-21T12:16:05.426Z,26.56
2018-03-21T12:17:05.418Z,29.21
2018-03-21T12:18:05.449Z,31.45
2018-03-21T12:19:05.495Z,33.26
2018-03-21T12:20:05.511Z,34.11
2018-03-21T12:21:05.536Z,34.77
2018-03-21T12:22:05.570Z,34.87
2018-03-21T12:23:05.594Z,35.50
2018-03-21T12:24:05.623Z,36.45
2018-03-21T12:25:05.676Z,37.30
2018-03-21T12:26:05.691Z,37.30
2018-03-21T12:27:05.728Z,37.59
2018-03-21T12:28:05.753Z,38.07
2018-03-21T12:29:05.781Z,38.35
2018-03-21T12:30:05.805Z,38.14
2018-03-21T12:31:05.844Z,38.53
2018-03-21T12:32:05.864Z,38.81
2018-03-21T12:33:05.922Z,39.67
2018-03-21T12:34:05.947Z,40.81
2018-03-21T12:35:05.955Z,40.81
2018-03-21T12:36:06.060Z,40.14
2018-03-21T12:37:06.010Z,40.14
2018-03-21T12:38:06.042Z,39.95
2018-03-21T12:39:06.083Z,39.97
2018-03-21T12:40:06.108Z,38.83
2018-03-21T12:41:06.126Z,37.97
2018-03-21T12:42:06.151Z,38.85
2018-03-21T12:43:06.215Z,37.90
2018-03-21T12:44:06.202Z,37.02
2018-03-21T12:45:06.227Z,36.64
2018-03-21T12:46:06.267Z,37.78
2018-03-21T12:47:06.295Z,37.49
2018-03-21T12:48:06.312Z,37.76
2018-03-21T12:49:06.339Z,37.19
2018-03-21T12:50:06.420Z,38.24
2018-03-21T12:51:06.397Z,38.51
2018-03-21T12:52:06.419Z,38.89
2018-03-21T12:53:06.462Z,38.90